Time;durP1;ratioP1;P1;durP2;ratioP2;P2;SDS_P1;SDS_P2;PMS_P1;PMS_P2;Temp;Humidity;BMP_temperature;BMP_pressure;BME280_temperature;BME280_humidity;BME280_pressure;Samples;Min_cycle;Max_cycle;Signal;HPM_P1;HPM_P2
2022/03/18 00:02:26;;;;;;;29.58;15.63;;;9.40;99.90;;;;;;20824448;28;20033;-75
2022/03/18 00:12:26;;;;;;;40.47;17.80;;;9.30;99.90;;;;;;20824225;28;20057;-75
2022/03/18 00:22:27;;;;;;;35.30;19.67;;;9.20;99.90;;;;;;20830446;28;20036;-75
2022/03/18 00:32:28;;;;;;;36.23;19.67;;;9.20;99.90;;;;;;20839424;28;20025;-75
2022/03/18 00:42:29;;;;;;;40.90;19.93;;;9.20;99.90;;;;;;20840071;28;20060;-75
2022/03/18 00:52:31;;;;;;;39.35;20.50;;;9.10;99.90;;;;;;20838009;28;20029;-75
2022/03/18 01:02:32;;;;;;;42.33;19.42;;;9.10;99.90;;;;;;20837103;28;20045;-75
2022/03/18 01:12:33;;;;;;;38.83;18.57;;;9.10;99.90;;;;;;20836369;28;20030;-75
2022/03/18 01:22:34;;;;;;;34.90;16.17;;;9.10;99.90;;;;;;20833376;28;20033;-75
2022/03/18 01:32:35;;;;;;;31.97;15.40;;;9.00;99.90;;;;;;20834182;28;20029;-75
2022/03/18 01:42:36;;;;;;;29.03;14.87;;;9.00;99.90;;;;;;20833187;28;20044;-75
2022/03/18 01:52:38;;;;;;;28.35;14.30;;;9.00;99.90;;;;;;20833655;28;20084;-75
2022/03/18 02:02:39;;;;;;;29.88;13.77;;;8.90;99.90;;;;;;20832705;28;20055;-75
2022/03/18 02:12:41;;;;;;;26.80;14.27;;;8.90;99.90;;;;;;20830695;28;20471;-75
2022/03/18 02:22:41;;;;;;;24.90;13.57;;;9.00;99.90;;;;;;20831345;28;20088;-76
2022/03/18 02:32:43;;;;;;;28.57;13.73;;;8.90;99.90;;;;;;20830370;28;20029;-75
2022/03/18 02:42:44;;;;;;;30.83;14.33;;;8.80;99.90;;;;;;20828646;28;20086;-75
2022/03/18 02:52:45;;;;;;;27.83;14.38;;;8.80;99.90;;;;;;20828954;28;20025;-75
2022/03/18 03:02:46;;;;;;;28.67;13.50;;;8.80;99.90;;;;;;20843299;22;20075;-76
2022/03/18 03:12:46;;;;;;;24.93;12.90;;;8.70;99.90;;;;;;20828024;28;20488;-76
2022/03/18 03:22:47;;;;;;;25.33;12.77;;;8.70;99.90;;;;;;20827389;28;20045;-76
2022/03/18 03:32:49;;;;;;;22.43;12.97;;;8.70;99.90;;;;;;20827053;28;20057;-76
2022/03/18 03:42:49;;;;;;;22.10;12.80;;;8.70;99.90;;;;;;20828589;28;20035;-76
2022/03/18 03:52:50;;;;;;;22.33;13.17;;;8.70;99.90;;;;;;20828026;28;20065;-77
2022/03/18 04:02:51;;;;;;;24.33;13.80;;;8.70;99.90;;;;;;20825662;28;20064;-77
2022/03/18 04:12:53;;;;;;;24.13;14.07;;;8.70;99.90;;;;;;20825023;28;20035;-75
2022/03/18 04:22:54;;;;;;;31.55;16.65;;;8.60;99.90;;;;;;20836945;28;20037;-76
2022/03/18 04:32:54;;;;;;;45.07;23.73;;;8.50;99.90;;;;;;20834320;28;20480;-77
2022/03/18 04:42:55;;;;;;;44.67;22.47;;;8.40;99.90;;;;;;20823765;28;20033;-76
2022/03/18 04:52:56;;;;;;;43.00;20.07;;;8.50;99.90;;;;;;20823987;28;20033;-75
2022/03/18 05:02:57;;;;;;;37.35;18.38;;;8.40;99.90;;;;;;20822052;28;20061;-75
2022/03/18 05:12:58;;;;;;;39.43;19.27;;;8.40;99.90;;;;;;20833505;28;20030;-75
2022/03/18 05:22:59;;;;;;;36.13;18.97;;;8.40;99.90;;;;;;20836690;28;20111;-75
2022/03/18 05:33:00;;;;;;;38.65;18.83;;;8.40;99.90;;;;;;20835452;28;20148;-75
2022/03/18 05:43:01;;;;;;;39.33;19.83;;;8.40;99.90;;;;;;20891755;28;20041;-74
2022/03/18 05:53:02;;;;;;;38.97;18.20;;;8.30;99.90;;;;;;20852791;28;20120;-73
2022/03/18 06:03:03;;;;;;;38.33;18.27;;;8.20;99.90;;;;;;20850841;28;20033;-75
2022/03/18 06:13:04;;;;;;;35.57;18.03;;;8.20;99.90;;;;;;20832370;28;20048;-76
2022/03/18 06:23:04;;;;;;;34.17;17.57;;;8.20;99.90;;;;;;20839514;28;20104;-76
2022/03/18 06:33:05;;;;;;;42.03;18.10;;;8.30;99.90;;;;;;20841613;28;20441;-76
2022/03/18 06:43:07;;;;;;;36.40;18.63;;;8.30;99.90;;;;;;20829940;28;20053;-76
2022/03/18 06:53:08;;;;;;;38.40;19.37;;;8.30;99.90;;;;;;20829254;28;20041;-76
2022/03/18 07:03:09;;;;;;;39.53;19.40;;;8.50;99.90;;;;;;20829170;28;20056;-74
2022/03/18 07:13:10;;;;;;;37.47;19.73;;;8.60;99.90;;;;;;20828167;28;20032;-74
2022/03/18 07:23:13;;;;;;;40.75;21.60;;;8.80;99.90;;;;;;20829160;28;20099;-75
2022/03/18 07:33:15;;;;;;;46.67;21.63;;;9.00;99.90;;;;;;20826345;28;20029;-75
2022/03/18 07:43:16;;;;;;;41.53;21.73;;;9.00;99.90;;;;;;20827813;28;20037;-76
2022/03/18 07:53:17;;;;;;;46.40;23.33;;;9.30;99.90;;;;;;20823401;28;20026;-75
2022/03/18 08:03:17;;;;;;;42.03;21.90;;;9.30;99.90;;;;;;20825677;28;20029;-76
2022/03/18 08:13:18;;;;;;;48.73;23.03;;;9.00;99.90;;;;;;20832129;28;20025;-73
2022/03/18 08:23:19;;;;;;;46.17;21.60;;;9.00;99.90;;;;;;20838640;28;20033;-76
2022/03/18 08:33:23;;;;;;;43.72;22.10;;;9.10;99.90;;;;;;20824389;28;20554;-74
2022/03/18 08:43:24;;;;;;;46.22;23.55;;;9.40;99.90;;;;;;20830562;28;20048;-76
2022/03/18 08:53:25;;;;;;;41.97;22.60;;;9.50;99.90;;;;;;20838968;28;20121;-76
2022/03/18 09:03:26;;;;;;;44.13;22.57;;;9.70;99.90;;;;;;20873185;22;20072;-77
2022/03/18 09:13:27;;;;;;;40.57;20.73;;;9.90;99.90;;;;;;20866976;28;20056;-77
2022/03/18 09:23:27;;;;;;;44.20;22.60;;;9.80;99.90;;;;;;20868661;28;20044;-78
2022/03/18 09:33:28;;;;;;;42.30;23.60;;;10.00;99.90;;;;;;20848715;28;20064;-78
2022/03/18 09:43:34;;;;;;;42.73;22.43;;;9.70;99.90;;;;;;20852862;28;20087;-77
2022/03/18 09:53:35;;;;;;;50.33;25.35;;;10.20;99.90;;;;;;20856873;28;20479;-78
2022/03/18 10:03:41;;;;;;;44.00;25.53;;;10.50;99.90;;;;;;20851730;28;20037;-77
2022/03/18 10:14:03;;;;;;;43.60;23.13;;;10.40;99.90;;;;;;20854059;28;20030;-78
2022/03/18 10:24:06;;;;;;;47.77;23.67;;;10.70;99.90;;;;;;20851208;28;20049;-78
2022/03/18 10:44:31;;;;;;;48.95;25.90;;;11.00;99.90;;;;;;20835362;28;20033;-77
2022/03/18 10:54:34;;;;;;;46.00;25.52;;;11.20;99.90;;;;;;20840071;28;20033;-77
2022/03/18 11:04:35;;;;;;;54.97;28.42;;;11.30;99.90;;;;;;20834303;28;20506;-77
2022/03/18 11:14:36;;;;;;;55.03;27.30;;;11.50;99.90;;;;;;20835632;28;20025;-77
2022/03/18 11:24:38;;;;;;;47.53;26.73;;;11.50;99.90;;;;;;20836052;28;20034;-76
2022/03/18 11:34:52;;;;;;;49.93;26.40;;;11.80;99.90;;;;;;20839526;28;20044;-77
2022/03/18 11:44:58;;;;;;;51.97;26.92;;;12.00;99.90;;;;;;20847476;28;20334;-78
2022/03/18 11:55:11;;;;;;;44.00;23.02;;;12.70;99.90;;;;;;20846215;28;20072;-77
2022/03/18 12:05:16;;;;;;;;;;;12.80;99.90;;;;;;20848706;28;20127;-77
2022/03/18 12:15:19;;;;;;;47.33;26.27;;;12.90;99.90;;;;;;20825849;28;20433;-78
2022/03/18 12:25:22;;;;;;;46.92;25.30;;;12.90;99.90;;;;;;20840371;28;20087;-78
2022/03/18 12:35:29;;;;;;;55.10;26.25;;;12.50;99.90;;;;;;20793017;28;20029;-76
2022/03/18 12:45:38;;;;;;;47.58;26.67;;;12.90;99.90;;;;;;20826533;28;20491;-77
2022/03/18 12:55:41;;;;;;;46.08;25.38;;;12.70;99.90;;;;;;20761310;28;20499;-76
2022/03/18 13:05:55;;;;;;;48.92;24.80;;;12.70;99.90;;;;;;20786850;28;20041;-77
2022/03/18 13:16:02;;;;;;;49.78;26.63;;;12.90;99.90;;;;;;20755597;28;20045;-76
2022/03/18 13:26:04;;;;;;;42.38;24.67;;;12.80;99.90;;;;;;20714291;28;20033;-76
2022/03/18 13:36:19;;;;;;;;;;;12.70;99.90;;;;;;20678180;28;20444;-76
2022/03/18 13:46:24;;;;;;;35.58;18.77;;;12.90;99.90;;;;;;20749270;28;19912;-76
2022/03/18 13:56:24;;;;;;;35.17;18.13;;;13.30;99.90;;;;;;20723489;28;20388;-75
2022/03/18 14:06:25;;;;;;;32.17;18.57;;;13.50;99.90;;;;;;20753607;28;20047;-76
2022/03/18 14:16:26;;;;;;;34.30;19.53;;;13.60;99.90;;;;;;20729528;28;20028;-76
2022/03/18 14:26:27;;;;;;;32.63;19.37;;;13.80;99.90;;;;;;20750841;28;20404;-75
2022/03/18 14:36:28;;;;;;;38.70;20.90;;;13.60;99.90;;;;;;20809863;28;20048;-76
2022/03/18 14:46:30;;;;;;;37.87;22.13;;;13.90;99.90;;;;;;20828082;28;20037;-75
2022/03/18 14:56:30;;;;;;;;;;;14.10;99.90;;;;;;20829118;28;20041;-75
2022/03/18 15:06:31;;;;;;;35.60;19.73;;;13.60;99.90;;;;;;20830128;28;19913;-75
2022/03/18 15:16:32;;;;;;;31.50;19.17;;;13.20;99.90;;;;;;20743969;28;20290;-75
2022/03/18 15:26:38;;;;;;;37.70;18.17;;;13.30;99.90;;;;;;20695744;28;20099;-74
2022/03/18 15:36:40;;;;;;;29.08;17.25;;;13.10;99.90;;;;;;20828621;28;20175;-76
2022/03/18 15:46:41;;;;;;;35.63;18.23;;;13.00;99.90;;;;;;20834788;28;20029;-76
2022/03/18 15:56:44;;;;;;;33.20;17.98;;;12.90;99.90;;;;;;20835433;28;20033;-76
2022/03/18 16:06:46;;;;;;;37.50;18.05;;;12.60;99.90;;;;;;20828402;28;20434;-76
2022/03/18 16:16:47;;;;;;;33.90;18.13;;;12.50;99.90;;;;;;20825467;28;20029;-77
2022/03/18 16:37:00;;;;;;;39.92;22.23;;;12.30;99.90;;;;;;20824081;28;20038;-76
2022/03/18 16:57:19;;;;;;;33.72;17.38;;;11.90;99.90;;;;;;20822966;28;20033;-76
2022/03/18 17:07:21;;;;;;;34.83;17.73;;;11.80;99.90;;;;;;20834144;28;20422;-76
2022/03/18 17:17:28;;;;;;;36.08;17.42;;;11.70;99.90;;;;;;20836746;28;20500;-76
2022/03/18 17:27:29;;;;;;;38.47;19.08;;;11.60;99.90;;;;;;20836151;28;20440;-76
2022/03/18 17:37:30;;;;;;;42.50;20.33;;;11.40;99.90;;;;;;20836709;28;20040;-75
2022/03/18 17:47:31;;;;;;;46.95;21.20;;;11.30;99.90;;;;;;20837996;28;20108;-75
2022/03/18 17:57:32;;;;;;;42.90;19.90;;;11.20;99.90;;;;;;20833828;28;20514;-76
2022/03/18 18:07:33;;;;;;;41.57;20.03;;;11.10;99.90;;;;;;20832915;28;20029;-75
2022/03/18 18:17:34;;;;;;;41.13;19.90;;;11.00;99.90;;;;;;20831929;28;20471;-76
2022/03/18 18:27:35;;;;;;;40.63;19.30;;;10.90;99.90;;;;;;20831206;28;20147;-75
2022/03/18 18:37:40;;;;;;;40.77;19.33;;;10.90;99.90;;;;;;20830629;28;20416;-75
2022/03/18 18:47:41;;;;;;;36.20;18.58;;;10.80;99.90;;;;;;20829091;28;20104;-76
2022/03/18 18:57:42;;;;;;;32.67;17.87;;;10.70;99.90;;;;;;20828708;28;20037;-76
2022/03/18 19:07:43;;;;;;;35.50;18.50;;;10.70;99.90;;;;;;20828710;28;20091;-75
2022/03/18 19:17:44;;;;;;;33.08;16.17;;;10.60;99.90;;;;;;20828927;28;20091;-75
2022/03/18 19:27:45;;;;;;;31.63;15.13;;;10.70;99.90;;;;;;20825762;28;20467;-76
2022/03/18 19:37:48;;;;;;;32.77;15.50;;;10.70;99.90;;;;;;20827693;28;20630;-75
2022/03/18 19:47:48;;;;;;;23.35;13.63;;;10.50;99.90;;;;;;20808781;28;20040;-75
2022/03/18 20:08:09;;;;;;;29.40;14.15;;;10.40;99.90;;;;;;20824954;28;20038;-75
2022/03/18 20:18:10;;;;;;;32.85;14.60;;;10.30;99.90;;;;;;20824327;28;20373;-76
2022/03/18 20:28:11;;;;;;;25.53;12.87;;;10.00;99.90;;;;;;20823423;28;20029;-74
2022/03/18 20:38:13;;;;;;;27.90;13.90;;;9.90;99.90;;;;;;20828015;28;20121;-75
2022/03/18 20:48:14;;;;;;;25.23;13.20;;;9.80;99.90;;;;;;20839589;28;20033;-75
2022/03/18 20:58:15;;;;;;;23.27;13.23;;;9.70;99.90;;;;;;20840827;28;20064;-75
2022/03/18 21:08:16;;;;;;;42.00;16.30;;;9.70;99.90;;;;;;20779856;22;20045;-73
2022/03/18 21:18:17;;;;;;;33.30;15.50;;;9.70;99.90;;;;;;20684241;28;20038;-73
2022/03/18 21:38:48;;;;;;;33.55;17.63;;;9.50;99.90;;;;;;20619280;28;20121;-73
2022/03/18 21:48:49;;;;;;;36.67;19.03;;;9.40;99.90;;;;;;20669897;28;20050;-73
2022/03/18 21:58:50;;;;;;;43.13;19.80;;;9.50;99.90;;;;;;20672026;28;20040;-73
2022/03/18 22:08:51;;;;;;;39.95;20.42;;;9.50;99.90;;;;;;20671315;28;20117;-73
2022/03/18 22:18:52;;;;;;;40.60;21.00;;;9.30;99.90;;;;;;20682814;28;20041;-72
2022/03/18 22:28:53;;;;;;;45.13;21.90;;;9.40;99.90;;;;;;20687036;28;20038;-73
2022/03/18 22:38:54;;;;;;;48.33;22.17;;;9.20;99.90;;;;;;20706624;28;20032;-73
2022/03/18 22:48:55;;;;;;;42.00;19.30;;;9.20;99.90;;;;;;20688814;28;20121;-73
2022/03/18 22:58:56;;;;;;;37.07;19.37;;;9.10;99.90;;;;;;20704946;28;20510;-73
2022/03/18 23:08:57;;;;;;;45.10;21.00;;;9.10;99.90;;;;;;20705815;28;20483;-73
2022/03/18 23:19:01;;;;;;;47.77;20.93;;;8.90;99.90;;;;;;20669197;28;20522;-73
2022/03/18 23:29:02;;;;;;;38.53;20.45;;;8.90;99.90;;;;;;20664036;28;20049;-73
2022/03/18 23:39:04;;;;;;;38.80;21.17;;;8.90;99.90;;;;;;20645905;28;20405;-73
2022/03/18 23:49:05;;;;;;;45.05;20.17;;;8.80;99.90;;;;;;20672383;28;20034;-72
2022/03/18 23:59:05;;;;;;;43.73;20.03;;;8.80;99.90;;;;;;20683873;28;20058;-73
